Terminal Aerodrome Forecast
Issued by NWS Mt. Holly, NJ

Home | Current Version | Previous Version | Text Only | Print | Product List | Glossary On
Versions: 1 2 3 4 5 6 7 8 9 10 11 12 13 14 15 16 17 18 19
000
FTUS41 KPHI 211140
TAFACY
TAF
KACY 211140Z 2112/2212 21007KT P6SM SCT250
     FM211400 22011G25KT P6SM SCT250
     FM212200 20010KT P6SM BKN180 PROB30 2204/2206 5SM -SHRA
     FM220600 21008KT 6SM -SHRA OVC035
     FM221000 25007KT 6SM -SHRA OVC035=

USA.gov is the U.S. government's official web portal to all federal, state and local government web resources and services.